createdAt,value
2023-01-19T00:00:00.093Z,12.32
2023-01-19T00:02:26.777Z,12.21
2023-01-19T00:04:53.463Z,12.15
2023-01-19T00:07:20.026Z,12.09
2023-01-19T00:09:46.772Z,12.22
2023-01-19T00:12:13.378Z,12.21
2023-01-19T00:14:40.147Z,12.41
2023-01-19T00:17:07.390Z,12.26
2023-01-19T00:19:34.043Z,12.42
2023-01-19T00:22:00.777Z,12.31
2023-01-19T00:24:27.403Z,12.50
2023-01-19T00:26:54.055Z,12.39
2023-01-19T00:29:20.650Z,12.37
2023-01-19T00:31:47.423Z,12.48
2023-01-19T00:34:14.083Z,12.39
2023-01-19T00:36:40.883Z,12.33
2023-01-19T00:39:07.869Z,12.34
2023-01-19T00:41:53.335Z,12.53
2023-01-19T00:44:19.957Z,12.41
2023-01-19T00:46:46.652Z,12.34
2023-01-19T00:49:13.249Z,12.34
2023-01-19T00:51:39.870Z,12.50
2023-01-19T00:54:10.383Z,12.48
2023-01-19T00:56:37.487Z,12.50
2023-01-19T00:59:05.056Z,12.47
2023-01-19T01:01:45.446Z,12.38
2023-01-19T01:04:13.617Z,12.17
2023-01-19T01:06:40.347Z,12.07
2023-01-19T01:09:12.115Z,12.36
2023-01-19T01:11:39.976Z,12.42
2023-01-19T01:14:06.978Z,12.32
2023-01-19T01:16:33.744Z,12.44
2023-01-19T01:19:00.475Z,12.22
2023-01-19T01:21:27.147Z,12.28
2023-01-19T01:23:53.872Z,12.20
2023-01-19T01:26:20.578Z,12.20
2023-01-19T01:28:47.210Z,12.13
2023-01-19T01:31:13.898Z,12.12
2023-01-19T01:33:41.927Z,11.92
2023-01-19T01:36:10.053Z,12.07
2023-01-19T01:38:36.696Z,12.05
2023-01-19T01:41:03.668Z,11.98
2023-01-19T01:43:50.121Z,11.87
2023-01-19T01:46:17.405Z,12.16
2023-01-19T01:48:51.377Z,12.21
2023-01-19T01:51:28.897Z,12.21
2023-01-19T01:54:00.541Z,11.97
2023-01-19T01:56:34.488Z,12.13
2023-01-19T01:59:02.426Z,12.05
2023-01-19T02:01:47.710Z,11.86
2023-01-19T02:04:14.469Z,11.81
2023-01-19T02:06:59.631Z,11.79
2023-01-19T02:09:44.743Z,11.80
2023-01-19T02:12:30.572Z,11.99
2023-01-19T02:14:57.252Z,11.79
2023-01-19T02:17:23.978Z,11.82
2023-01-19T02:19:51.008Z,11.78
2023-01-19T02:22:23.439Z,12.09
2023-01-19T02:24:50.145Z,11.81
2023-01-19T02:27:16.827Z,11.67
2023-01-19T02:29:43.449Z,11.67
2023-01-19T02:32:10.282Z,11.72
2023-01-19T02:34:37.013Z,11.74
2023-01-19T02:37:21.770Z,11.67
2023-01-19T02:39:59.091Z,11.58
2023-01-19T02:42:30.919Z,11.62
2023-01-19T02:44:57.741Z,11.49
2023-01-19T02:47:24.375Z,11.30
2023-01-19T02:49:56.104Z,10.96
2023-01-19T02:52:22.837Z,11.19
2023-01-19T02:54:58.435Z,11.68
2023-01-19T02:57:49.189Z,11.52
2023-01-19T03:00:37.441Z,11.76
2023-01-19T03:03:07.065Z,11.92
2023-01-19T03:05:49.970Z,11.93
2023-01-19T03:08:39.563Z,11.92
2023-01-19T03:11:12.804Z,11.97
2023-01-19T03:14:00.948Z,11.69
2023-01-19T03:16:31.479Z,12.15
2023-01-19T03:19:16.223Z,12.26
2023-01-19T03:21:44.329Z,11.95
2023-01-19T03:24:11.406Z,11.75
2023-01-19T03:26:41.598Z,11.94
2023-01-19T03:29:08.238Z,11.89
2023-01-19T03:31:34.874Z,12.04
2023-01-19T03:34:03.813Z,11.93
2023-01-19T03:36:34.002Z,11.78
2023-01-19T03:39:00.956Z,11.71
2023-01-19T03:41:28.490Z,11.65
2023-01-19T03:43:55.648Z,11.48
2023-01-19T03:46:22.940Z,10.91
2023-01-19T03:48:49.935Z,11.02
2023-01-19T03:51:16.586Z,11.10
2023-01-19T03:53:43.289Z,11.42
2023-01-19T03:56:27.873Z,11.68
2023-01-19T03:58:56.220Z,11.92
2023-01-19T04:01:23.874Z,12.05
2023-01-19T04:03:51.306Z,11.83
2023-01-19T04:06:18.124Z,11.74
2023-01-19T04:08:44.850Z,11.61
2023-01-19T04:11:12.329Z,11.74
2023-01-19T04:13:39.027Z,11.84
2023-01-19T04:16:06.243Z,11.96
2023-01-19T04:18:34.725Z,12.16
2023-01-19T04:21:06.195Z,12.02
2023-01-19T04:23:33.588Z,11.77
2023-01-19T04:26:01.201Z,11.59
2023-01-19T04:28:27.905Z,11.89
2023-01-19T04:30:54.695Z,11.79
2023-01-19T04:33:21.517Z,11.96
2023-01-19T04:35:48.712Z,12.03
2023-01-19T04:38:15.313Z,11.80
2023-01-19T04:40:41.980Z,11.65
2023-01-19T04:43:08.879Z,11.84
2023-01-19T04:45:36.588Z,12.14
2023-01-19T04:48:06.672Z,12.28
2023-01-19T04:50:33.389Z,12.25
2023-01-19T04:53:00.979Z,11.96
2023-01-19T04:55:27.964Z,12.20
2023-01-19T04:57:54.842Z,12.43
2023-01-19T05:00:21.748Z,12.33
2023-01-19T05:02:48.591Z,12.10
2023-01-19T05:05:15.369Z,11.91
2023-01-19T05:07:42.778Z,12.28
2023-01-19T05:10:10.227Z,12.51
2023-01-19T05:12:37.329Z,12.60
2023-01-19T05:15:04.449Z,12.19
2023-01-19T05:17:31.047Z,11.96
2023-01-19T05:19:57.708Z,11.84
2023-01-19T05:22:24.544Z,12.00
2023-01-19T05:24:51.132Z,12.22
2023-01-19T05:27:17.854Z,11.91
2023-01-19T05:29:44.441Z,12.07
2023-01-19T05:32:11.177Z,12.49
2023-01-19T05:34:37.815Z,11.92
2023-01-19T05:37:04.439Z,11.76
2023-01-19T05:39:31.191Z,11.91
2023-01-19T05:41:57.772Z,12.26
2023-01-19T05:44:24.559Z,11.62
2023-01-19T05:46:51.320Z,12.09
2023-01-19T05:49:18.020Z,12.30
2023-01-19T05:51:45.544Z,12.31
2023-01-19T05:54:14.202Z,12.46
2023-01-19T05:56:40.912Z,12.19
2023-01-19T05:59:07.607Z,11.60
2023-01-19T06:01:37.037Z,11.73
2023-01-19T06:04:05.749Z,11.70
2023-01-19T06:06:32.453Z,11.30
2023-01-19T06:08:59.292Z,11.20
2023-01-19T06:11:26.263Z,11.54
2023-01-19T06:13:52.887Z,11.78
2023-01-19T06:16:19.632Z,12.01
2023-01-19T06:18:46.319Z,11.89
2023-01-19T06:21:14.371Z,11.64
2023-01-19T06:23:41.126Z,11.94
2023-01-19T06:26:07.804Z,11.99
2023-01-19T06:28:34.558Z,11.81
2023-01-19T06:31:01.329Z,11.84
2023-01-19T06:33:28.097Z,12.29
2023-01-19T06:35:54.877Z,12.31
2023-01-19T06:38:21.743Z,12.31
2023-01-19T06:40:55.860Z,12.19
2023-01-19T06:43:22.583Z,12.29
2023-01-19T06:45:50.211Z,12.16
2023-01-19T06:48:17.006Z,12.56
2023-01-19T06:50:46.959Z,12.67
2023-01-19T06:53:14.636Z,12.56
2023-01-19T06:55:41.221Z,12.47
2023-01-19T06:58:08.533Z,12.39
2023-01-19T07:00:35.328Z,12.36
2023-01-19T07:03:02.611Z,12.66
2023-01-19T07:05:29.482Z,12.79
2023-01-19T07:07:56.652Z,12.78
2023-01-19T07:10:24.331Z,12.82
2023-01-19T07:12:51.033Z,12.75
2023-01-19T07:15:19.780Z,13.05
2023-01-19T07:17:46.456Z,13.29
2023-01-19T07:20:14.279Z,13.13
2023-01-19T07:22:41.895Z,13.26
2023-01-19T07:25:08.949Z,13.50
2023-01-19T07:27:35.661Z,13.83
2023-01-19T07:30:02.513Z,13.73
2023-01-19T07:32:29.189Z,13.80
2023-01-19T07:34:55.849Z,13.72
2023-01-19T07:37:22.550Z,13.85
2023-01-19T07:39:49.223Z,13.82
2023-01-19T07:42:15.939Z,13.63
2023-01-19T07:44:42.702Z,13.75
2023-01-19T07:47:12.561Z,13.82
2023-01-19T07:49:39.725Z,14.02
2023-01-19T07:52:06.385Z,13.74
2023-01-19T07:54:33.237Z,14.11
2023-01-19T07:57:00.880Z,14.49
2023-01-19T07:59:31.140Z,13.94
2023-01-19T08:01:59.558Z,14.56
2023-01-19T08:04:27.370Z,14.67
2023-01-19T08:06:54.216Z,14.75
2023-01-19T08:09:20.892Z,14.76
2023-01-19T08:11:47.521Z,14.58
2023-01-19T08:14:14.160Z,14.73
2023-01-19T08:16:40.828Z,15.13
2023-01-19T08:19:07.443Z,14.83
2023-01-19T08:21:35.596Z,14.32
2023-01-19T08:24:02.533Z,14.52
2023-01-19T08:26:30.679Z,14.81
2023-01-19T08:28:58.368Z,14.39
2023-01-19T08:31:25.315Z,14.64
2023-01-19T08:33:52.331Z,14.56
2023-01-19T08:36:19.518Z,14.82
2023-01-19T08:38:46.406Z,15.20
2023-01-19T08:41:13.266Z,14.97
2023-01-19T08:43:39.864Z,14.97
2023-01-19T08:46:06.794Z,14.95
2023-01-19T08:48:33.626Z,15.61
2023-01-19T08:51:00.549Z,15.63
2023-01-19T08:53:27.270Z,15.76
2023-01-19T08:56:01.331Z,16.02
2023-01-19T08:58:28.355Z,16.02
2023-01-19T09:00:55.226Z,15.71
2023-01-19T09:03:22.873Z,15.98
2023-01-19T09:05:49.691Z,15.88
2023-01-19T09:08:16.624Z,15.74
2023-01-19T09:10:48.077Z,15.55
2023-01-19T09:13:14.882Z,15.53
2023-01-19T09:15:41.770Z,15.75
2023-01-19T09:18:10.388Z,16.28
2023-01-19T09:20:39.082Z,16.23
2023-01-19T09:23:06.270Z,15.92
2023-01-19T09:25:32.960Z,16.09
2023-01-19T09:28:00.524Z,16.14
2023-01-19T09:30:27.943Z,16.46
2023-01-19T09:32:54.682Z,16.40
2023-01-19T09:35:21.698Z,15.65
2023-01-19T09:37:48.383Z,16.50
2023-01-19T09:40:15.463Z,16.48
2023-01-19T09:42:46.440Z,16.70
2023-01-19T09:45:23.361Z,16.59
2023-01-19T09:47:49.939Z,15.99
2023-01-19T09:50:28.175Z,16.23
2023-01-19T09:53:07.523Z,16.15
2023-01-19T09:55:34.226Z,15.89
2023-01-19T09:58:01.237Z,16.14
2023-01-19T10:00:28.067Z,16.09
2023-01-19T10:02:57.685Z,16.58
2023-01-19T10:05:34.062Z,16.24
2023-01-19T10:08:28.720Z,16.14
2023-01-19T10:10:56.839Z,16.05
2023-01-19T10:13:36.552Z,16.00
2023-01-19T10:16:15.006Z,16.05
2023-01-19T10:18:45.972Z,15.55
2023-01-19T10:21:27.251Z,15.44
2023-01-19T10:24:18.079Z,15.77
2023-01-19T10:26:49.815Z,15.62
2023-01-19T10:29:26.761Z,15.53
2023-01-19T10:31:55.472Z,15.49
2023-01-19T10:34:23.942Z,15.55
2023-01-19T10:36:50.909Z,15.68
2023-01-19T10:39:18.392Z,16.04
2023-01-19T10:41:49.287Z,16.21
2023-01-19T10:44:26.512Z,15.83
2023-01-19T10:46:54.489Z,15.95
2023-01-19T10:49:28.181Z,15.70
2023-01-19T10:51:55.820Z,15.90
2023-01-19T10:54:22.592Z,16.21
2023-01-19T10:56:57.363Z,16.69
2023-01-19T10:59:31.153Z,16.05
2023-01-19T11:02:21.188Z,16.35
2023-01-19T11:04:50.125Z,15.89
2023-01-19T11:07:27.956Z,15.18
2023-01-19T11:10:11.818Z,14.94
2023-01-19T11:13:02.100Z,15.23
2023-01-19T11:15:33.188Z,15.74
2023-01-19T11:18:00.096Z,15.76
2023-01-19T11:20:34.316Z,16.00
2023-01-19T11:23:08.367Z,15.14
2023-01-19T11:25:35.479Z,14.65
2023-01-19T11:28:02.180Z,14.52
2023-01-19T11:30:34.999Z,14.94
2023-01-19T11:33:01.938Z,14.58
2023-01-19T11:35:35.974Z,15.08
2023-01-19T11:38:20.329Z,15.77
2023-01-19T11:40:52.797Z,15.35
2023-01-19T11:43:20.823Z,15.31
2023-01-19T11:45:47.696Z,15.68
2023-01-19T11:48:27.288Z,16.03
2023-01-19T11:50:53.944Z,15.98
2023-01-19T11:53:29.290Z,15.36
2023-01-19T11:55:57.657Z,15.10
2023-01-19T11:58:24.499Z,15.57
2023-01-19T12:01:11.588Z,15.99
2023-01-19T12:03:46.997Z,15.96
2023-01-19T12:06:16.072Z,16.54
2023-01-19T12:09:04.224Z,16.28
2023-01-19T12:11:55.366Z,16.17
2023-01-19T12:14:27.471Z,16.53
2023-01-19T12:16:56.207Z,16.31
2023-01-19T12:19:25.331Z,16.20
2023-01-19T12:21:52.717Z,15.95
2023-01-19T12:24:31.941Z,15.97
2023-01-19T12:26:59.899Z,16.30
2023-01-19T12:29:28.815Z,16.13
2023-01-19T12:32:13.936Z,16.79
2023-01-19T12:34:45.078Z,16.11
2023-01-19T12:37:36.311Z,16.50
2023-01-19T12:40:05.631Z,16.40
2023-01-19T12:42:32.302Z,16.61
2023-01-19T12:45:09.359Z,16.51
2023-01-19T12:47:36.486Z,16.75
2023-01-19T12:50:08.003Z,16.44
2023-01-19T12:52:39.175Z,16.17
2023-01-19T12:55:15.136Z,16.05
2023-01-19T12:57:41.729Z,16.07
2023-01-19T13:00:26.598Z,16.29
2023-01-19T13:02:57.401Z,15.69
2023-01-19T13:05:33.569Z,15.19
2023-01-19T13:08:03.138Z,15.43
2023-01-19T13:11:05.610Z,15.42
2023-01-19T13:13:39.916Z,15.70
2023-01-19T13:16:18.796Z,16.12
2023-01-19T13:18:49.079Z,15.95
2023-01-19T13:21:29.597Z,15.69
2023-01-19T13:24:06.357Z,15.79
2023-01-19T13:26:38.568Z,15.96
2023-01-19T13:29:13.234Z,16.31
2023-01-19T13:31:40.910Z,15.80
2023-01-19T13:34:15.123Z,15.43
2023-01-19T13:36:46.213Z,15.41
2023-01-19T13:39:17.680Z,14.69
2023-01-19T13:41:45.086Z,13.85
2023-01-19T13:44:21.843Z,13.59
2023-01-19T13:46:48.703Z,13.70
2023-01-19T13:49:23.405Z,13.99
2023-01-19T13:52:25.270Z,14.01
2023-01-19T13:55:01.729Z,13.86
2023-01-19T13:57:29.265Z,13.77
2023-01-19T14:00:17.342Z,13.99
2023-01-19T14:02:54.736Z,13.83
2023-01-19T14:05:30.102Z,13.70
2023-01-19T14:08:08.951Z,13.91
2023-01-19T14:10:36.247Z,13.96
2023-01-19T14:13:12.886Z,13.60
2023-01-19T14:15:40.784Z,13.15
2023-01-19T14:18:30.059Z,12.90
2023-01-19T14:21:08.908Z,12.76
2023-01-19T14:23:39.541Z,12.72
2023-01-19T14:26:42.370Z,12.69
2023-01-19T14:29:18.058Z,12.67
2023-01-19T14:31:44.672Z,12.80
2023-01-19T14:34:35.388Z,13.14
2023-01-19T14:37:03.281Z,13.49
2023-01-19T14:39:34.634Z,13.84
2023-01-19T14:42:03.185Z,14.05
2023-01-19T14:44:32.388Z,13.89
2023-01-19T14:46:59.639Z,13.77
2023-01-19T14:49:39.702Z,13.40
2023-01-19T14:52:19.231Z,13.57
2023-01-19T14:54:45.935Z,13.81
2023-01-19T14:57:15.820Z,13.37
2023-01-19T14:59:46.918Z,13.13
2023-01-19T15:02:13.737Z,13.11
2023-01-19T15:04:40.469Z,13.50
2023-01-19T15:07:07.270Z,13.37
2023-01-19T15:09:33.906Z,13.42
2023-01-19T15:12:00.666Z,13.04
2023-01-19T15:14:27.901Z,13.23
2023-01-19T15:16:54.581Z,13.04
2023-01-19T15:19:21.182Z,12.90
2023-01-19T15:21:47.858Z,13.29
2023-01-19T15:24:16.343Z,12.77
2023-01-19T15:26:44.402Z,12.82
2023-01-19T15:29:32.334Z,12.92
2023-01-19T15:31:59.055Z,13.16
2023-01-19T15:34:25.739Z,13.12
2023-01-19T15:36:52.350Z,13.10
2023-01-19T15:39:19.061Z,13.14
2023-01-19T15:41:45.696Z,13.00
2023-01-19T15:44:12.569Z,12.96
2023-01-19T15:46:39.299Z,12.63
2023-01-19T15:49:05.965Z,12.61
2023-01-19T15:51:33.072Z,12.63
2023-01-19T15:53:59.756Z,12.66
2023-01-19T15:56:30.588Z,12.18
2023-01-19T15:58:58.131Z,12.19
2023-01-19T16:01:31.471Z,11.93
2023-01-19T16:04:05.236Z,11.87
2023-01-19T16:06:32.156Z,11.80
2023-01-19T16:09:01.851Z,11.91
2023-01-19T16:11:29.873Z,12.00
2023-01-19T16:13:56.561Z,11.93
2023-01-19T16:16:24.182Z,12.02
2023-01-19T16:18:50.999Z,11.92
2023-01-19T16:21:17.644Z,11.91
2023-01-19T16:23:44.379Z,11.95
2023-01-19T16:26:32.539Z,11.78
2023-01-19T16:29:00.687Z,11.87
2023-01-19T16:31:27.487Z,11.85
2023-01-19T16:33:54.269Z,11.94
2023-01-19T16:36:26.518Z,11.84
2023-01-19T16:38:53.635Z,11.74
2023-01-19T16:41:20.522Z,11.84
2023-01-19T16:43:52.013Z,11.72
2023-01-19T16:46:23.511Z,11.51
2023-01-19T16:48:50.919Z,11.62
2023-01-19T16:51:17.660Z,11.72
2023-01-19T16:53:44.481Z,11.56
2023-01-19T16:56:12.747Z,11.62
2023-01-19T16:58:39.723Z,11.68
2023-01-19T17:01:10.884Z,11.85
2023-01-19T17:03:38.603Z,11.85
2023-01-19T17:06:09.047Z,11.86
2023-01-19T17:08:35.733Z,11.96
2023-01-19T17:11:09.399Z,11.94
2023-01-19T17:13:35.995Z,11.62
2023-01-19T17:16:02.930Z,11.87
2023-01-19T17:18:31.920Z,11.85
2023-01-19T17:21:06.341Z,11.28
2023-01-19T17:23:32.943Z,11.18
2023-01-19T17:25:59.633Z,11.04
2023-01-19T17:28:26.522Z,10.79
2023-01-19T17:30:53.465Z,10.87
2023-01-19T17:33:21.179Z,11.04
2023-01-19T17:35:47.925Z,10.69
2023-01-19T17:38:14.588Z,10.89
2023-01-19T17:40:41.204Z,11.11
2023-01-19T17:43:07.907Z,11.10
2023-01-19T17:45:36.104Z,11.04
2023-01-19T17:48:06.055Z,11.26
2023-01-19T17:50:34.565Z,11.43
2023-01-19T17:53:01.257Z,11.42
2023-01-19T17:55:27.978Z,11.30
2023-01-19T17:57:55.475Z,11.10
2023-01-19T18:00:22.580Z,10.80
2023-01-19T18:02:50.832Z,10.72
2023-01-19T18:05:18.291Z,10.41
2023-01-19T18:07:44.970Z,10.43
2023-01-19T18:10:11.906Z,10.29
2023-01-19T18:12:38.902Z,10.12
2023-01-19T18:15:06.224Z,10.00
2023-01-19T18:17:32.855Z,10.12
2023-01-19T18:19:59.595Z,10.03
2023-01-19T18:22:26.242Z,10.24
2023-01-19T18:24:52.844Z,10.61
2023-01-19T18:27:20.375Z,10.40
2023-01-19T18:29:47.074Z,10.41
2023-01-19T18:32:13.678Z,10.46
2023-01-19T18:34:40.393Z,10.75
2023-01-19T18:37:07.077Z,10.54
2023-01-19T18:39:33.806Z,10.42
2023-01-19T18:42:00.727Z,10.49
2023-01-19T18:44:27.605Z,10.50
2023-01-19T18:46:54.828Z,10.11
2023-01-19T18:49:21.453Z,10.35
2023-01-19T18:51:48.189Z,10.36
2023-01-19T18:54:14.926Z,10.33
2023-01-19T18:56:41.679Z,10.18
2023-01-19T18:59:08.383Z,9.91
2023-01-19T19:01:36.121Z,9.66
2023-01-19T19:04:03.084Z,9.75
2023-01-19T19:06:29.797Z,9.52
2023-01-19T19:08:57.302Z,9.42
2023-01-19T19:11:24.353Z,9.63
2023-01-19T19:13:55.196Z,9.70
2023-01-19T19:16:22.112Z,9.76
2023-01-19T19:18:52.126Z,9.67
2023-01-19T19:21:19.303Z,9.38
2023-01-19T19:23:53.346Z,9.48
2023-01-19T19:26:19.996Z,9.48
2023-01-19T19:28:47.374Z,9.39
2023-01-19T19:31:16.634Z,9.14
2023-01-19T19:33:43.339Z,9.18
2023-01-19T19:36:10.366Z,9.02
2023-01-19T19:38:37.178Z,9.01
2023-01-19T19:41:07.801Z,9.07
2023-01-19T19:43:34.710Z,9.01
2023-01-19T19:46:08.857Z,9.01
2023-01-19T19:48:37.066Z,9.08
2023-01-19T19:51:25.722Z,9.12
2023-01-19T19:53:53.208Z,9.31
2023-01-19T19:56:21.367Z,9.32
2023-01-19T19:58:48.511Z,9.03
2023-01-19T20:01:19.845Z,9.02
2023-01-19T20:03:46.598Z,8.53
2023-01-19T20:06:20.593Z,8.53
2023-01-19T20:08:51.554Z,8.74
2023-01-19T20:11:22.685Z,8.68
2023-01-19T20:13:49.357Z,8.96
2023-01-19T20:16:17.875Z,9.15
2023-01-19T20:18:48.421Z,9.10
2023-01-19T20:21:35.693Z,9.04
2023-01-19T20:24:04.302Z,8.87
2023-01-19T20:26:33.074Z,9.00
2023-01-19T20:29:02.470Z,9.30
2023-01-19T20:31:30.609Z,9.28
2023-01-19T20:33:58.892Z,9.06
2023-01-19T20:36:25.986Z,8.99
2023-01-19T20:38:53.281Z,8.98
2023-01-19T20:41:20.324Z,9.18
2023-01-19T20:43:47.052Z,9.31
2023-01-19T20:46:13.772Z,8.67
2023-01-19T20:48:40.390Z,8.26
2023-01-19T20:51:12.116Z,8.44
2023-01-19T20:53:39.484Z,8.75
2023-01-19T20:56:11.196Z,9.01
2023-01-19T20:58:37.864Z,9.14
2023-01-19T21:01:15.354Z,8.96
2023-01-19T21:03:42.282Z,8.94
2023-01-19T21:06:09.125Z,9.01
2023-01-19T21:08:35.918Z,9.13
2023-01-19T21:11:02.650Z,9.08
2023-01-19T21:13:29.210Z,8.97
2023-01-19T21:15:55.873Z,9.04
2023-01-19T21:18:22.567Z,8.97
2023-01-19T21:20:49.368Z,8.79
2023-01-19T21:23:16.071Z,8.58
2023-01-19T21:25:50.897Z,8.49
2023-01-19T21:28:18.611Z,8.26
2023-01-19T21:30:45.382Z,7.98
2023-01-19T21:33:12.210Z,7.69
2023-01-19T21:35:38.925Z,8.03
2023-01-19T21:38:05.807Z,7.81
2023-01-19T21:40:32.527Z,7.60
2023-01-19T21:42:59.282Z,7.81
2023-01-19T21:45:25.909Z,8.08
2023-01-19T21:47:52.651Z,8.33
2023-01-19T21:50:19.524Z,8.68
2023-01-19T21:52:46.274Z,8.76
2023-01-19T21:55:13.089Z,8.69
2023-01-19T21:57:39.752Z,8.77
2023-01-19T22:00:07.181Z,8.73
2023-01-19T22:02:38.866Z,8.74
2023-01-19T22:05:06.666Z,8.66
2023-01-19T22:07:33.382Z,8.56
2023-01-19T22:10:00.086Z,8.64
2023-01-19T22:12:26.847Z,8.71
2023-01-19T22:14:53.533Z,8.62
2023-01-19T22:17:20.120Z,8.51
2023-01-19T22:19:47.571Z,8.78
2023-01-19T22:22:15.059Z,8.88
2023-01-19T22:24:46.477Z,8.83
2023-01-19T22:27:13.504Z,8.94
2023-01-19T22:29:40.108Z,8.86
2023-01-19T22:32:07.018Z,8.57
2023-01-19T22:34:33.864Z,8.73
2023-01-19T22:37:00.896Z,8.86
2023-01-19T22:39:27.461Z,8.46
2023-01-19T22:41:54.129Z,8.58
2023-01-19T22:44:21.317Z,8.57
2023-01-19T22:46:48.709Z,8.64
2023-01-19T22:49:16.702Z,8.17
2023-01-19T22:51:43.896Z,8.16
2023-01-19T22:54:10.860Z,8.01
2023-01-19T22:56:38.152Z,8.11
2023-01-19T22:59:05.239Z,8.05
2023-01-19T23:01:42.301Z,8.27
2023-01-19T23:04:12.313Z,8.32
2023-01-19T23:06:39.097Z,7.93
2023-01-19T23:09:07.502Z,7.83
2023-01-19T23:11:36.202Z,7.99
2023-01-19T23:14:03.749Z,8.18
2023-01-19T23:16:30.421Z,7.97
2023-01-19T23:18:57.828Z,7.92
2023-01-19T23:21:25.703Z,7.93
2023-01-19T23:23:56.602Z,7.95
2023-01-19T23:26:23.608Z,7.76
2023-01-19T23:29:01.166Z,7.51
2023-01-19T23:31:32.181Z,7.08
2023-01-19T23:34:03.467Z,7.03
2023-01-19T23:36:31.481Z,6.64
2023-01-19T23:38:59.927Z,6.61
2023-01-19T23:41:27.917Z,6.58
2023-01-19T23:43:54.682Z,6.12
2023-01-19T23:46:21.428Z,6.33
2023-01-19T23:48:48.076Z,6.15
2023-01-19T23:51:25.585Z,6.39
2023-01-19T23:53:52.227Z,6.17
2023-01-19T23:56:25.685Z,5.91
2023-01-19T23:58:59.534Z,5.71
